sensor_id;sensor_type;location;lat;lon;timestamp;P1;durP1;ratioP1;P2;durP2;ratioP2
51854;SDS011;37895;53.240;6.572;2023-12-07T00:00:50;21.00;;;18.73;;
51854;SDS011;37895;53.240;6.572;2023-12-07T00:03:15;20.23;;;18.35;;
51854;SDS011;37895;53.240;6.572;2023-12-07T00:05:41;21.70;;;18.38;;
51854;SDS011;37895;53.240;6.572;2023-12-07T00:08:09;20.30;;;18.42;;
51854;SDS011;37895;53.240;6.572;2023-12-07T00:10:35;20.13;;;18.15;;
51854;SDS011;37895;53.240;6.572;2023-12-07T00:13:01;20.00;;;18.10;;
51854;SDS011;37895;53.240;6.572;2023-12-07T00:15:27;19.98;;;17.88;;
51854;SDS011;37895;53.240;6.572;2023-12-07T00:17:52;18.95;;;17.05;;
51854;SDS011;37895;53.240;6.572;2023-12-07T00:20:18;20.38;;;18.42;;
51854;SDS011;37895;53.240;6.572;2023-12-07T00:22:44;21.65;;;19.45;;
51854;SDS011;37895;53.240;6.572;2023-12-07T00:25:09;18.15;;;16.45;;
51854;SDS011;37895;53.240;6.572;2023-12-07T00:27:35;18.90;;;16.90;;
51854;SDS011;37895;53.240;6.572;2023-12-07T00:30:00;20.92;;;18.92;;
51854;SDS011;37895;53.240;6.572;2023-12-07T00:32:26;19.45;;;17.50;;
51854;SDS011;37895;53.240;6.572;2023-12-07T00:34:52;18.25;;;16.65;;
51854;SDS011;37895;53.240;6.572;2023-12-07T00:37:18;18.83;;;16.83;;
51854;SDS011;37895;53.240;6.572;2023-12-07T00:39:43;19.80;;;17.15;;
51854;SDS011;37895;53.240;6.572;2023-12-07T00:42:10;18.98;;;17.20;;
51854;SDS011;37895;53.240;6.572;2023-12-07T00:44:39;19.60;;;17.67;;
51854;SDS011;37895;53.240;6.572;2023-12-07T00:47:06;18.95;;;16.67;;
51854;SDS011;37895;53.240;6.572;2023-12-07T00:49:31;19.05;;;17.20;;
51854;SDS011;37895;53.240;6.572;2023-12-07T00:51:57;19.02;;;17.23;;
51854;SDS011;37895;53.240;6.572;2023-12-07T00:54:23;18.58;;;16.88;;
51854;SDS011;37895;53.240;6.572;2023-12-07T00:56:48;19.02;;;17.05;;
51854;SDS011;37895;53.240;6.572;2023-12-07T00:59:14;18.13;;;16.25;;
51854;SDS011;37895;53.240;6.572;2023-12-07T01:01:39;18.30;;;16.50;;
51854;SDS011;37895;53.240;6.572;2023-12-07T01:04:05;18.58;;;16.88;;
51854;SDS011;37895;53.240;6.572;2023-12-07T01:06:31;18.88;;;16.95;;
51854;SDS011;37895;53.240;6.572;2023-12-07T01:08:57;18.75;;;17.05;;
51854;SDS011;37895;53.240;6.572;2023-12-07T01:11:22;20.33;;;18.10;;
51854;SDS011;37895;53.240;6.572;2023-12-07T01:13:48;18.73;;;16.75;;
51854;SDS011;37895;53.240;6.572;2023-12-07T01:16:14;20.15;;;18.15;;
51854;SDS011;37895;53.240;6.572;2023-12-07T01:18:39;18.65;;;16.95;;
51854;SDS011;37895;53.240;6.572;2023-12-07T01:21:05;18.92;;;17.08;;
51854;SDS011;37895;53.240;6.572;2023-12-07T01:23:31;18.48;;;16.52;;
51854;SDS011;37895;53.240;6.572;2023-12-07T01:25:57;18.67;;;16.98;;
51854;SDS011;37895;53.240;6.572;2023-12-07T01:28:22;18.23;;;16.42;;
51854;SDS011;37895;53.240;6.572;2023-12-07T01:30:48;19.25;;;17.35;;
51854;SDS011;37895;53.240;6.572;2023-12-07T01:33:14;18.80;;;16.95;;
51854;SDS011;37895;53.240;6.572;2023-12-07T01:38:05;17.42;;;15.82;;
51854;SDS011;37895;53.240;6.572;2023-12-07T01:40:31;17.63;;;15.93;;
51854;SDS011;37895;53.240;6.572;2023-12-07T01:42:57;18.80;;;16.88;;
51854;SDS011;37895;53.240;6.572;2023-12-07T01:45:22;18.25;;;16.55;;
51854;SDS011;37895;53.240;6.572;2023-12-07T01:47:49;17.08;;;15.57;;
51854;SDS011;37895;53.240;6.572;2023-12-07T01:50:16;17.23;;;15.63;;
51854;SDS011;37895;53.240;6.572;2023-12-07T01:52:43;18.02;;;16.33;;
51854;SDS011;37895;53.240;6.572;2023-12-07T01:55:12;18.70;;;16.85;;
51854;SDS011;37895;53.240;6.572;2023-12-07T01:57:38;19.55;;;17.75;;
51854;SDS011;37895;53.240;6.572;2023-12-07T02:00:05;20.05;;;18.02;;
51854;SDS011;37895;53.240;6.572;2023-12-07T02:02:31;17.85;;;16.05;;
51854;SDS011;37895;53.240;6.572;2023-12-07T02:04:57;18.15;;;16.40;;
51854;SDS011;37895;53.240;6.572;2023-12-07T02:07:23;19.60;;;16.05;;
51854;SDS011;37895;53.240;6.572;2023-12-07T02:09:49;18.05;;;16.20;;
51854;SDS011;37895;53.240;6.572;2023-12-07T02:12:15;18.02;;;16.20;;
51854;SDS011;37895;53.240;6.572;2023-12-07T02:14:41;18.70;;;16.85;;
51854;SDS011;37895;53.240;6.572;2023-12-07T02:22:32;17.77;;;15.98;;
51854;SDS011;37895;53.240;6.572;2023-12-07T02:27:34;18.25;;;16.35;;
51854;SDS011;37895;53.240;6.572;2023-12-07T02:30:13;17.70;;;15.90;;
51854;SDS011;37895;53.240;6.572;2023-12-07T02:35:06;17.60;;;15.93;;
51854;SDS011;37895;53.240;6.572;2023-12-07T02:37:35;18.33;;;16.38;;
51854;SDS011;37895;53.240;6.572;2023-12-07T02:40:05;18.08;;;16.30;;
51854;SDS011;37895;53.240;6.572;2023-12-07T02:42:35;17.33;;;15.52;;
51854;SDS011;37895;53.240;6.572;2023-12-07T02:45:08;17.95;;;16.35;;
51854;SDS011;37895;53.240;6.572;2023-12-07T02:47:35;16.55;;;14.88;;
51854;SDS011;37895;53.240;6.572;2023-12-07T02:50:01;16.65;;;15.05;;
51854;SDS011;37895;53.240;6.572;2023-12-07T02:52:30;17.98;;;16.35;;
51854;SDS011;37895;53.240;6.572;2023-12-07T02:54:57;18.25;;;16.48;;
51854;SDS011;37895;53.240;6.572;2023-12-07T02:57:23;17.33;;;15.23;;
51854;SDS011;37895;53.240;6.572;2023-12-07T02:59:48;16.75;;;15.00;;
51854;SDS011;37895;53.240;6.572;2023-12-07T03:02:14;17.83;;;16.00;;
51854;SDS011;37895;53.240;6.572;2023-12-07T03:04:39;17.95;;;16.15;;
51854;SDS011;37895;53.240;6.572;2023-12-07T03:07:05;17.00;;;15.50;;
51854;SDS011;37895;53.240;6.572;2023-12-07T03:09:31;17.02;;;15.50;;
51854;SDS011;37895;53.240;6.572;2023-12-07T03:11:56;17.10;;;15.30;;
51854;SDS011;37895;53.240;6.572;2023-12-07T03:14:22;16.90;;;15.20;;
51854;SDS011;37895;53.240;6.572;2023-12-07T03:16:48;17.25;;;15.40;;
51854;SDS011;37895;53.240;6.572;2023-12-07T03:19:14;16.98;;;15.32;;
51854;SDS011;37895;53.240;6.572;2023-12-07T03:21:40;16.50;;;14.88;;
51854;SDS011;37895;53.240;6.572;2023-12-07T03:24:06;18.63;;;16.63;;
51854;SDS011;37895;53.240;6.572;2023-12-07T03:26:36;16.45;;;14.70;;
51854;SDS011;37895;53.240;6.572;2023-12-07T03:29:04;15.90;;;14.30;;
51854;SDS011;37895;53.240;6.572;2023-12-07T03:31:30;18.17;;;15.77;;
51854;SDS011;37895;53.240;6.572;2023-12-07T03:33:56;16.15;;;14.57;;
51854;SDS011;37895;53.240;6.572;2023-12-07T03:36:22;16.25;;;14.23;;
51854;SDS011;37895;53.240;6.572;2023-12-07T03:38:48;16.08;;;14.65;;
51854;SDS011;37895;53.240;6.572;2023-12-07T03:43:40;15.98;;;14.38;;
51854;SDS011;37895;53.240;6.572;2023-12-07T03:46:06;16.05;;;14.40;;
51854;SDS011;37895;53.240;6.572;2023-12-07T03:48:32;15.82;;;13.98;;
51854;SDS011;37895;53.240;6.572;2023-12-07T03:50:58;14.43;;;13.00;;
51854;SDS011;37895;53.240;6.572;2023-12-07T03:53:24;15.95;;;14.25;;
51854;SDS011;37895;53.240;6.572;2023-12-07T03:55:49;14.93;;;13.52;;
51854;SDS011;37895;53.240;6.572;2023-12-07T03:58:15;15.85;;;14.23;;
51854;SDS011;37895;53.240;6.572;2023-12-07T04:00:40;15.38;;;13.93;;
51854;SDS011;37895;53.240;6.572;2023-12-07T04:03:06;15.13;;;13.57;;
51854;SDS011;37895;53.240;6.572;2023-12-07T04:05:32;15.13;;;13.77;;
51854;SDS011;37895;53.240;6.572;2023-12-07T04:07:58;14.93;;;13.48;;
51854;SDS011;37895;53.240;6.572;2023-12-07T04:10:24;15.25;;;13.85;;
51854;SDS011;37895;53.240;6.572;2023-12-07T04:12:50;15.00;;;13.40;;
51854;SDS011;37895;53.240;6.572;2023-12-07T04:15:17;15.77;;;14.20;;
51854;SDS011;37895;53.240;6.572;2023-12-07T04:20:09;15.77;;;14.18;;
51854;SDS011;37895;53.240;6.572;2023-12-07T04:22:35;16.02;;;14.48;;
51854;SDS011;37895;53.240;6.572;2023-12-07T04:25:01;15.68;;;14.27;;
51854;SDS011;37895;53.240;6.572;2023-12-07T04:27:27;17.20;;;15.57;;
51854;SDS011;37895;53.240;6.572;2023-12-07T04:29:52;15.57;;;13.98;;
51854;SDS011;37895;53.240;6.572;2023-12-07T04:32:18;16.10;;;14.40;;
51854;SDS011;37895;53.240;6.572;2023-12-07T04:34:44;16.08;;;14.50;;
51854;SDS011;37895;53.240;6.572;2023-12-07T04:37:10;15.95;;;14.27;;
51854;SDS011;37895;53.240;6.572;2023-12-07T04:39:35;15.88;;;14.18;;
51854;SDS011;37895;53.240;6.572;2023-12-07T04:42:01;14.98;;;13.57;;
51854;SDS011;37895;53.240;6.572;2023-12-07T04:44:27;16.08;;;14.07;;
51854;SDS011;37895;53.240;6.572;2023-12-07T04:49:19;13.98;;;12.57;;
51854;SDS011;37895;53.240;6.572;2023-12-07T04:51:44;13.75;;;12.43;;
51854;SDS011;37895;53.240;6.572;2023-12-07T04:54:12;15.32;;;13.90;;
51854;SDS011;37895;53.240;6.572;2023-12-07T04:56:40;15.07;;;13.57;;
51854;SDS011;37895;53.240;6.572;2023-12-07T04:59:06;14.85;;;13.38;;
51854;SDS011;37895;53.240;6.572;2023-12-07T05:01:31;15.07;;;13.55;;
51854;SDS011;37895;53.240;6.572;2023-12-07T05:03:57;15.30;;;13.48;;
51854;SDS011;37895;53.240;6.572;2023-12-07T05:06:22;15.27;;;13.85;;
51854;SDS011;37895;53.240;6.572;2023-12-07T05:08:48;15.15;;;13.75;;
51854;SDS011;37895;53.240;6.572;2023-12-07T05:11:14;15.60;;;13.32;;
51854;SDS011;37895;53.240;6.572;2023-12-07T05:13:39;17.15;;;15.07;;
51854;SDS011;37895;53.240;6.572;2023-12-07T05:16:05;14.32;;;13.02;;
51854;SDS011;37895;53.240;6.572;2023-12-07T05:18:31;15.75;;;14.25;;
51854;SDS011;37895;53.240;6.572;2023-12-07T05:20:56;17.98;;;15.52;;
51854;SDS011;37895;53.240;6.572;2023-12-07T05:23:22;16.75;;;14.30;;
51854;SDS011;37895;53.240;6.572;2023-12-07T05:25:48;16.02;;;14.32;;
51854;SDS011;37895;53.240;6.572;2023-12-07T05:28:13;17.60;;;14.68;;
51854;SDS011;37895;53.240;6.572;2023-12-07T05:30:39;16.80;;;15.13;;
51854;SDS011;37895;53.240;6.572;2023-12-07T05:33:05;16.20;;;14.73;;
51854;SDS011;37895;53.240;6.572;2023-12-07T05:35:30;16.38;;;14.75;;
51854;SDS011;37895;53.240;6.572;2023-12-07T05:37:56;15.98;;;14.43;;
51854;SDS011;37895;53.240;6.572;2023-12-07T05:40:23;17.13;;;15.45;;
51854;SDS011;37895;53.240;6.572;2023-12-07T05:42:49;16.85;;;15.20;;
51854;SDS011;37895;53.240;6.572;2023-12-07T05:45:16;17.13;;;15.23;;
51854;SDS011;37895;53.240;6.572;2023-12-07T05:47:41;16.63;;;15.10;;
51854;SDS011;37895;53.240;6.572;2023-12-07T05:50:07;15.50;;;14.10;;
51854;SDS011;37895;53.240;6.572;2023-12-07T05:52:33;16.15;;;14.65;;
51854;SDS011;37895;53.240;6.572;2023-12-07T05:54:58;17.00;;;15.15;;
51854;SDS011;37895;53.240;6.572;2023-12-07T05:57:24;18.35;;;16.60;;
51854;SDS011;37895;53.240;6.572;2023-12-07T05:59:50;18.77;;;16.83;;
51854;SDS011;37895;53.240;6.572;2023-12-07T06:02:16;16.52;;;14.82;;
51854;SDS011;37895;53.240;6.572;2023-12-07T06:04:41;17.42;;;15.75;;
51854;SDS011;37895;53.240;6.572;2023-12-07T06:07:07;17.83;;;16.05;;
51854;SDS011;37895;53.240;6.572;2023-12-07T06:09:32;17.58;;;15.85;;
51854;SDS011;37895;53.240;6.572;2023-12-07T06:14:24;18.50;;;16.60;;
51854;SDS011;37895;53.240;6.572;2023-12-07T06:16:50;18.90;;;16.95;;
51854;SDS011;37895;53.240;6.572;2023-12-07T06:19:16;18.13;;;16.23;;
51854;SDS011;37895;53.240;6.572;2023-12-07T06:21:42;18.88;;;16.85;;
51854;SDS011;37895;53.240;6.572;2023-12-07T06:24:09;19.77;;;17.85;;
51854;SDS011;37895;53.240;6.572;2023-12-07T06:26:35;20.48;;;18.40;;
51854;SDS011;37895;53.240;6.572;2023-12-07T06:29:01;21.45;;;17.92;;
51854;SDS011;37895;53.240;6.572;2023-12-07T06:31:27;20.42;;;18.42;;
51854;SDS011;37895;53.240;6.572;2023-12-07T06:33:52;20.80;;;18.58;;
51854;SDS011;37895;53.240;6.572;2023-12-07T06:36:19;20.70;;;18.70;;
51854;SDS011;37895;53.240;6.572;2023-12-07T06:38:48;20.05;;;17.90;;
51854;SDS011;37895;53.240;6.572;2023-12-07T06:43:43;21.25;;;19.20;;
51854;SDS011;37895;53.240;6.572;2023-12-07T06:46:10;19.45;;;17.55;;
51854;SDS011;37895;53.240;6.572;2023-12-07T06:48:39;20.60;;;18.60;;
51854;SDS011;37895;53.240;6.572;2023-12-07T06:51:05;18.75;;;16.80;;
51854;SDS011;37895;53.240;6.572;2023-12-07T06:53:31;21.55;;;19.50;;
51854;SDS011;37895;53.240;6.572;2023-12-07T06:55:57;19.15;;;17.35;;
51854;SDS011;37895;53.240;6.572;2023-12-07T06:58:23;20.50;;;18.35;;
51854;SDS011;37895;53.240;6.572;2023-12-07T07:00:49;18.95;;;16.92;;
51854;SDS011;37895;53.240;6.572;2023-12-07T07:03:15;19.25;;;17.20;;
51854;SDS011;37895;53.240;6.572;2023-12-07T07:05:40;20.17;;;18.10;;
51854;SDS011;37895;53.240;6.572;2023-12-07T07:08:06;19.77;;;17.67;;
51854;SDS011;37895;53.240;6.572;2023-12-07T07:10:35;19.55;;;16.77;;
51854;SDS011;37895;53.240;6.572;2023-12-07T07:13:01;20.27;;;18.20;;
51854;SDS011;37895;53.240;6.572;2023-12-07T07:18:51;18.35;;;16.25;;
51854;SDS011;37895;53.240;6.572;2023-12-07T07:23:52;18.08;;;16.40;;
51854;SDS011;37895;53.240;6.572;2023-12-07T07:26:18;20.10;;;17.85;;
51854;SDS011;37895;53.240;6.572;2023-12-07T07:28:43;19.10;;;16.75;;
51854;SDS011;37895;53.240;6.572;2023-12-07T07:31:09;19.33;;;17.30;;
51854;SDS011;37895;53.240;6.572;2023-12-07T07:33:34;18.58;;;16.58;;
51854;SDS011;37895;53.240;6.572;2023-12-07T07:36:00;19.90;;;17.80;;
51854;SDS011;37895;53.240;6.572;2023-12-07T07:38:26;19.10;;;17.20;;
51854;SDS011;37895;53.240;6.572;2023-12-07T07:40:51;19.33;;;17.33;;
51854;SDS011;37895;53.240;6.572;2023-12-07T07:43:17;20.50;;;17.30;;
51854;SDS011;37895;53.240;6.572;2023-12-07T07:45:43;20.00;;;17.95;;
51854;SDS011;37895;53.240;6.572;2023-12-07T07:48:09;18.70;;;16.90;;
51854;SDS011;37895;53.240;6.572;2023-12-07T07:50:34;20.05;;;18.05;;
51854;SDS011;37895;53.240;6.572;2023-12-07T07:53:01;19.70;;;17.63;;
51854;SDS011;37895;53.240;6.572;2023-12-07T07:55:28;19.40;;;17.27;;
51854;SDS011;37895;53.240;6.572;2023-12-07T07:57:54;19.67;;;17.67;;
51854;SDS011;37895;53.240;6.572;2023-12-07T08:00:19;20.17;;;18.10;;
51854;SDS011;37895;53.240;6.572;2023-12-07T08:02:46;20.83;;;18.70;;
51854;SDS011;37895;53.240;6.572;2023-12-07T08:05:11;20.10;;;18.10;;
51854;SDS011;37895;53.240;6.572;2023-12-07T08:07:38;19.70;;;17.67;;
51854;SDS011;37895;53.240;6.572;2023-12-07T08:10:05;19.73;;;17.63;;
51854;SDS011;37895;53.240;6.572;2023-12-07T08:12:31;21.52;;;19.33;;
51854;SDS011;37895;53.240;6.572;2023-12-07T08:14:58;23.15;;;19.35;;
51854;SDS011;37895;53.240;6.572;2023-12-07T08:17:24;21.00;;;18.33;;
51854;SDS011;37895;53.240;6.572;2023-12-07T08:19:51;22.83;;;19.25;;
51854;SDS011;37895;53.240;6.572;2023-12-07T08:22:17;20.98;;;18.35;;
51854;SDS011;37895;53.240;6.572;2023-12-07T08:24:42;22.98;;;19.25;;
51854;SDS011;37895;53.240;6.572;2023-12-07T08:27:08;20.55;;;18.35;;
51854;SDS011;37895;53.240;6.572;2023-12-07T08:29:34;21.63;;;19.40;;
51854;SDS011;37895;53.240;6.572;2023-12-07T08:32:00;21.15;;;18.95;;
51854;SDS011;37895;53.240;6.572;2023-12-07T08:34:25;20.83;;;18.83;;
51854;SDS011;37895;53.240;6.572;2023-12-07T08:36:51;21.17;;;19.08;;
51854;SDS011;37895;53.240;6.572;2023-12-07T08:39:16;20.33;;;18.15;;
51854;SDS011;37895;53.240;6.572;2023-12-07T08:41:42;23.88;;;21.33;;
51854;SDS011;37895;53.240;6.572;2023-12-07T08:44:08;22.92;;;20.42;;
51854;SDS011;37895;53.240;6.572;2023-12-07T08:46:33;22.02;;;19.73;;
51854;SDS011;37895;53.240;6.572;2023-12-07T08:48:59;28.02;;;21.88;;
51854;SDS011;37895;53.240;6.572;2023-12-07T08:51:25;24.45;;;21.40;;
51854;SDS011;37895;53.240;6.572;2023-12-07T08:53:50;24.30;;;21.70;;
51854;SDS011;37895;53.240;6.572;2023-12-07T08:56:17;22.98;;;20.38;;
51854;SDS011;37895;53.240;6.572;2023-12-07T08:58:43;25.05;;;22.40;;
51854;SDS011;37895;53.240;6.572;2023-12-07T09:01:09;24.17;;;21.58;;
51854;SDS011;37895;53.240;6.572;2023-12-07T09:03:36;23.92;;;21.42;;
51854;SDS011;37895;53.240;6.572;2023-12-07T09:06:02;23.90;;;21.40;;
51854;SDS011;37895;53.240;6.572;2023-12-07T09:08:28;26.20;;;23.38;;
51854;SDS011;37895;53.240;6.572;2023-12-07T09:10:54;24.77;;;22.23;;
51854;SDS011;37895;53.240;6.572;2023-12-07T09:13:19;25.20;;;22.55;;
51854;SDS011;37895;53.240;6.572;2023-12-07T09:15:45;24.00;;;21.58;;
51854;SDS011;37895;53.240;6.572;2023-12-07T09:18:10;22.08;;;19.77;;
51854;SDS011;37895;53.240;6.572;2023-12-07T09:20:36;24.00;;;21.50;;
51854;SDS011;37895;53.240;6.572;2023-12-07T09:23:03;25.45;;;22.75;;
51854;SDS011;37895;53.240;6.572;2023-12-07T09:25:29;22.80;;;20.45;;
51854;SDS011;37895;53.240;6.572;2023-12-07T09:27:55;24.05;;;21.55;;
51854;SDS011;37895;53.240;6.572;2023-12-07T09:30:21;24.23;;;21.63;;
51854;SDS011;37895;53.240;6.572;2023-12-07T09:32:47;25.10;;;22.27;;
51854;SDS011;37895;53.240;6.572;2023-12-07T09:35:13;26.65;;;21.92;;
51854;SDS011;37895;53.240;6.572;2023-12-07T09:37:45;24.63;;;21.98;;
51854;SDS011;37895;53.240;6.572;2023-12-07T09:40:15;24.65;;;21.88;;
51854;SDS011;37895;53.240;6.572;2023-12-07T09:42:42;25.20;;;21.83;;
51854;SDS011;37895;53.240;6.572;2023-12-07T09:45:09;22.48;;;20.10;;
51854;SDS011;37895;53.240;6.572;2023-12-07T09:47:36;27.67;;;24.30;;
51854;SDS011;37895;53.240;6.572;2023-12-07T09:50:04;27.15;;;23.48;;
51854;SDS011;37895;53.240;6.572;2023-12-07T09:52:30;26.23;;;23.42;;
51854;SDS011;37895;53.240;6.572;2023-12-07T09:54:56;24.90;;;22.30;;
51854;SDS011;37895;53.240;6.572;2023-12-07T09:57:22;27.30;;;24.35;;
51854;SDS011;37895;53.240;6.572;2023-12-07T09:59:48;29.13;;;24.33;;
51854;SDS011;37895;53.240;6.572;2023-12-07T10:02:13;27.92;;;25.10;;
51854;SDS011;37895;53.240;6.572;2023-12-07T10:04:39;26.70;;;23.85;;
51854;SDS011;37895;53.240;6.572;2023-12-07T10:07:05;27.90;;;24.92;;
51854;SDS011;37895;53.240;6.572;2023-12-07T10:09:34;27.10;;;23.98;;
51854;SDS011;37895;53.240;6.572;2023-12-07T10:12:06;28.42;;;25.17;;
51854;SDS011;37895;53.240;6.572;2023-12-07T10:14:32;28.15;;;24.88;;
51854;SDS011;37895;53.240;6.572;2023-12-07T10:16:59;26.13;;;23.27;;
51854;SDS011;37895;53.240;6.572;2023-12-07T10:19:25;26.58;;;23.80;;
51854;SDS011;37895;53.240;6.572;2023-12-07T10:21:52;29.20;;;25.95;;
51854;SDS011;37895;53.240;6.572;2023-12-07T10:24:19;28.27;;;25.38;;
51854;SDS011;37895;53.240;6.572;2023-12-07T10:26:50;28.05;;;24.67;;
51854;SDS011;37895;53.240;6.572;2023-12-07T10:29:19;31.05;;;26.35;;
51854;SDS011;37895;53.240;6.572;2023-12-07T10:31:45;28.85;;;24.50;;
51854;SDS011;37895;53.240;6.572;2023-12-07T10:34:15;28.95;;;25.88;;
51854;SDS011;37895;53.240;6.572;2023-12-07T10:36:44;28.60;;;25.40;;
51854;SDS011;37895;53.240;6.572;2023-12-07T10:39:12;28.60;;;25.60;;
51854;SDS011;37895;53.240;6.572;2023-12-07T10:41:37;28.00;;;23.52;;
51854;SDS011;37895;53.240;6.572;2023-12-07T10:44:04;26.00;;;23.30;;
51854;SDS011;37895;53.240;6.572;2023-12-07T10:46:33;25.13;;;22.52;;
51854;SDS011;37895;53.240;6.572;2023-12-07T10:49:07;25.48;;;22.77;;
51854;SDS011;37895;53.240;6.572;2023-12-07T10:51:41;26.10;;;23.48;;
51854;SDS011;37895;53.240;6.572;2023-12-07T10:54:30;25.75;;;23.08;;
51854;SDS011;37895;53.240;6.572;2023-12-07T10:57:07;24.75;;;22.15;;
51854;SDS011;37895;53.240;6.572;2023-12-07T10:59:34;25.40;;;22.67;;
51854;SDS011;37895;53.240;6.572;2023-12-07T11:02:02;22.42;;;20.13;;
51854;SDS011;37895;53.240;6.572;2023-12-07T11:04:28;23.17;;;19.73;;
51854;SDS011;37895;53.240;6.572;2023-12-07T11:06:55;22.00;;;19.65;;
51854;SDS011;37895;53.240;6.572;2023-12-07T11:09:27;22.20;;;19.90;;
51854;SDS011;37895;53.240;6.572;2023-12-07T11:14:59;21.80;;;19.60;;
51854;SDS011;37895;53.240;6.572;2023-12-07T11:17:26;22.02;;;19.00;;
51854;SDS011;37895;53.240;6.572;2023-12-07T11:19:51;21.23;;;18.92;;
51854;SDS011;37895;53.240;6.572;2023-12-07T11:22:17;22.02;;;19.73;;
51854;SDS011;37895;53.240;6.572;2023-12-07T11:24:54;21.15;;;18.67;;
51854;SDS011;37895;53.240;6.572;2023-12-07T11:27:23;22.55;;;20.20;;
51854;SDS011;37895;53.240;6.572;2023-12-07T11:29:50;20.58;;;17.80;;
51854;SDS011;37895;53.240;6.572;2023-12-07T11:34:42;19.42;;;17.25;;
51854;SDS011;37895;53.240;6.572;2023-12-07T11:37:09;20.20;;;18.17;;
51854;SDS011;37895;53.240;6.572;2023-12-07T11:39:36;23.15;;;18.77;;
51854;SDS011;37895;53.240;6.572;2023-12-07T11:42:22;21.85;;;19.55;;
51854;SDS011;37895;53.240;6.572;2023-12-07T11:44:48;23.50;;;19.40;;
51854;SDS011;37895;53.240;6.572;2023-12-07T11:47:18;20.92;;;18.80;;
51854;SDS011;37895;53.240;6.572;2023-12-07T11:49:45;18.88;;;16.98;;
51854;SDS011;37895;53.240;6.572;2023-12-07T11:54:38;20.60;;;17.50;;
51854;SDS011;37895;53.240;6.572;2023-12-07T11:57:03;19.75;;;17.73;;
51854;SDS011;37895;53.240;6.572;2023-12-07T11:59:29;19.75;;;17.83;;
51854;SDS011;37895;53.240;6.572;2023-12-07T12:01:59;23.77;;;19.02;;
51854;SDS011;37895;53.240;6.572;2023-12-07T12:04:27;21.67;;;18.88;;
51854;SDS011;37895;53.240;6.572;2023-12-07T12:06:53;21.88;;;19.52;;
51854;SDS011;37895;53.240;6.572;2023-12-07T12:09:19;22.45;;;19.98;;
51854;SDS011;37895;53.240;6.572;2023-12-07T12:11:45;26.15;;;20.60;;
51854;SDS011;37895;53.240;6.572;2023-12-07T12:14:13;20.80;;;18.48;;
51854;SDS011;37895;53.240;6.572;2023-12-07T12:16:40;20.85;;;18.50;;
51854;SDS011;37895;53.240;6.572;2023-12-07T12:19:05;21.02;;;18.83;;
51854;SDS011;37895;53.240;6.572;2023-12-07T12:21:34;23.40;;;20.13;;
51854;SDS011;37895;53.240;6.572;2023-12-07T12:24:04;22.83;;;19.30;;
51854;SDS011;37895;53.240;6.572;2023-12-07T12:26:34;22.23;;;19.90;;
51854;SDS011;37895;53.240;6.572;2023-12-07T12:29:02;24.15;;;19.77;;
51854;SDS011;37895;53.240;6.572;2023-12-07T12:31:28;23.48;;;20.73;;
51854;SDS011;37895;53.240;6.572;2023-12-07T12:33:54;22.17;;;19.85;;
51854;SDS011;37895;53.240;6.572;2023-12-07T12:36:20;22.55;;;19.75;;
51854;SDS011;37895;53.240;6.572;2023-12-07T12:38:52;21.65;;;19.17;;
51854;SDS011;37895;53.240;6.572;2023-12-07T12:41:18;23.27;;;20.88;;
51854;SDS011;37895;53.240;6.572;2023-12-07T12:43:44;22.95;;;19.70;;
51854;SDS011;37895;53.240;6.572;2023-12-07T12:46:10;22.48;;;20.17;;
51854;SDS011;37895;53.240;6.572;2023-12-07T12:51:08;25.63;;;22.95;;
51854;SDS011;37895;53.240;6.572;2023-12-07T12:53:41;25.05;;;22.17;;
51854;SDS011;37895;53.240;6.572;2023-12-07T12:56:11;26.27;;;23.65;;
51854;SDS011;37895;53.240;6.572;2023-12-07T12:58:37;27.33;;;24.45;;
51854;SDS011;37895;53.240;6.572;2023-12-07T13:01:03;28.70;;;25.50;;
51854;SDS011;37895;53.240;6.572;2023-12-07T13:03:29;28.08;;;25.15;;
51854;SDS011;37895;53.240;6.572;2023-12-07T13:05:55;30.70;;;27.50;;
51854;SDS011;37895;53.240;6.572;2023-12-07T13:08:20;27.08;;;24.17;;
51854;SDS011;37895;53.240;6.572;2023-12-07T13:10:46;31.00;;;27.83;;
51854;SDS011;37895;53.240;6.572;2023-12-07T13:13:11;34.33;;;27.40;;
51854;SDS011;37895;53.240;6.572;2023-12-07T13:15:37;36.03;;;32.13;;
51854;SDS011;37895;53.240;6.572;2023-12-07T13:18:02;33.03;;;29.60;;
51854;SDS011;37895;53.240;6.572;2023-12-07T13:20:29;35.65;;;31.80;;
51854;SDS011;37895;53.240;6.572;2023-12-07T13:22:56;33.65;;;29.08;;
51854;SDS011;37895;53.240;6.572;2023-12-07T13:25:21;29.42;;;26.30;;
51854;SDS011;37895;53.240;6.572;2023-12-07T13:27:47;33.50;;;28.98;;
51854;SDS011;37895;53.240;6.572;2023-12-07T13:30:13;33.72;;;28.83;;
51854;SDS011;37895;53.240;6.572;2023-12-07T13:32:38;32.45;;;28.77;;
51854;SDS011;37895;53.240;6.572;2023-12-07T13:35:05;30.95;;;27.65;;
51854;SDS011;37895;53.240;6.572;2023-12-07T13:37:32;31.92;;;28.50;;
51854;SDS011;37895;53.240;6.572;2023-12-07T13:39:58;30.30;;;27.08;;
51854;SDS011;37895;53.240;6.572;2023-12-07T13:44:54;28.75;;;25.80;;
51854;SDS011;37895;53.240;6.572;2023-12-07T13:47:24;30.30;;;27.10;;
51854;SDS011;37895;53.240;6.572;2023-12-07T13:49:54;31.33;;;28.02;;
51854;SDS011;37895;53.240;6.572;2023-12-07T13:52:21;28.33;;;25.25;;
51854;SDS011;37895;53.240;6.572;2023-12-07T13:54:47;30.35;;;27.17;;
51854;SDS011;37895;53.240;6.572;2023-12-07T13:57:13;33.72;;;28.73;;
51854;SDS011;37895;53.240;6.572;2023-12-07T13:59:39;31.90;;;27.75;;
51854;SDS011;37895;53.240;6.572;2023-12-07T14:04:31;31.75;;;28.25;;
51854;SDS011;37895;53.240;6.572;2023-12-07T14:09:43;40.55;;;33.22;;
51854;SDS011;37895;53.240;6.572;2023-12-07T14:12:11;33.92;;;29.10;;
51854;SDS011;37895;53.240;6.572;2023-12-07T14:14:38;38.92;;;31.33;;
51854;SDS011;37895;53.240;6.572;2023-12-07T14:17:04;34.13;;;29.73;;
51854;SDS011;37895;53.240;6.572;2023-12-07T14:19:30;36.33;;;30.67;;
51854;SDS011;37895;53.240;6.572;2023-12-07T14:21:56;34.67;;;30.73;;
51854;SDS011;37895;53.240;6.572;2023-12-07T14:24:22;33.97;;;29.77;;
51854;SDS011;37895;53.240;6.572;2023-12-07T14:26:48;36.70;;;30.65;;
51854;SDS011;37895;53.240;6.572;2023-12-07T14:29:14;38.30;;;31.73;;
51854;SDS011;37895;53.240;6.572;2023-12-07T14:31:43;36.00;;;30.95;;
51854;SDS011;37895;53.240;6.572;2023-12-07T14:34:09;37.25;;;31.58;;
51854;SDS011;37895;53.240;6.572;2023-12-07T14:36:35;38.13;;;30.75;;
51854;SDS011;37895;53.240;6.572;2023-12-07T14:39:03;39.55;;;31.33;;
51854;SDS011;37895;53.240;6.572;2023-12-07T14:41:31;37.22;;;29.35;;
51854;SDS011;37895;53.240;6.572;2023-12-07T14:43:57;37.08;;;29.02;;
51854;SDS011;37895;53.240;6.572;2023-12-07T14:46:23;39.53;;;30.70;;
51854;SDS011;37895;53.240;6.572;2023-12-07T14:48:48;37.78;;;31.05;;
51854;SDS011;37895;53.240;6.572;2023-12-07T14:51:17;41.45;;;32.03;;
51854;SDS011;37895;53.240;6.572;2023-12-07T14:53:45;41.40;;;29.83;;
51854;SDS011;37895;53.240;6.572;2023-12-07T14:56:11;39.88;;;31.40;;
51854;SDS011;37895;53.240;6.572;2023-12-07T14:58:37;44.17;;;35.33;;
51854;SDS011;37895;53.240;6.572;2023-12-07T15:01:05;47.17;;;34.92;;
51854;SDS011;37895;53.240;6.572;2023-12-07T15:03:31;39.25;;;32.15;;
51854;SDS011;37895;53.240;6.572;2023-12-07T15:05:56;46.55;;;33.50;;